sensor_id;sensor_type;location;lat;lon;timestamp;P1;durP1;ratioP1;P2;durP2;ratioP2
56141;SDS011;42018;48.588;10.836;2023-06-22T00:01:23;5.70;;;3.28;;
56141;SDS011;42018;48.588;10.836;2023-06-22T00:04:09;6.10;;;3.40;;
56141;SDS011;42018;48.588;10.836;2023-06-22T00:06:54;5.72;;;3.42;;
56141;SDS011;42018;48.588;10.836;2023-06-22T00:09:39;5.00;;;3.42;;
56141;SDS011;42018;48.588;10.836;2023-06-22T00:12:25;5.53;;;3.50;;
56141;SDS011;42018;48.588;10.836;2023-06-22T00:15:10;5.75;;;3.78;;
56141;SDS011;42018;48.588;10.836;2023-06-22T00:17:55;8.20;;;3.50;;
56141;SDS011;42018;48.588;10.836;2023-06-22T00:20:42;5.53;;;3.17;;
56141;SDS011;42018;48.588;10.836;2023-06-22T00:23:27;5.68;;;3.13;;
56141;SDS011;42018;48.588;10.836;2023-06-22T00:26:13;5.78;;;3.42;;
56141;SDS011;42018;48.588;10.836;2023-06-22T00:28:58;6.15;;;3.70;;
56141;SDS011;42018;48.588;10.836;2023-06-22T00:31:44;6.00;;;3.58;;
56141;SDS011;42018;48.588;10.836;2023-06-22T00:34:29;5.53;;;3.58;;
56141;SDS011;42018;48.588;10.836;2023-06-22T00:37:14;4.82;;;3.25;;
56141;SDS011;42018;48.588;10.836;2023-06-22T00:40:00;4.82;;;3.30;;
56141;SDS011;42018;48.588;10.836;2023-06-22T00:42:45;4.88;;;2.97;;
56141;SDS011;42018;48.588;10.836;2023-06-22T00:45:30;6.03;;;3.80;;
56141;SDS011;42018;48.588;10.836;2023-06-22T00:48:16;5.50;;;3.22;;
56141;SDS011;42018;48.588;10.836;2023-06-22T00:51:01;4.72;;;3.25;;
56141;SDS011;42018;48.588;10.836;2023-06-22T00:53:47;4.68;;;3.38;;
56141;SDS011;42018;48.588;10.836;2023-06-22T00:56:33;5.35;;;3.25;;
56141;SDS011;42018;48.588;10.836;2023-06-22T00:59:20;6.75;;;4.22;;
56141;SDS011;42018;48.588;10.836;2023-06-22T01:02:06;6.90;;;3.70;;
56141;SDS011;42018;48.588;10.836;2023-06-22T01:04:51;6.05;;;3.47;;
56141;SDS011;42018;48.588;10.836;2023-06-22T01:07:49;5.70;;;3.70;;
56141;SDS011;42018;48.588;10.836;2023-06-22T01:16:29;5.82;;;4.10;;
56141;SDS011;42018;48.588;10.836;2023-06-22T01:19:20;7.43;;;4.28;;
56141;SDS011;42018;48.588;10.836;2023-06-22T01:22:24;5.68;;;3.60;;
56141;SDS011;42018;48.588;10.836;2023-06-22T01:25:20;6.45;;;4.30;;
56141;SDS011;42018;48.588;10.836;2023-06-22T01:28:20;7.35;;;4.60;;
56141;SDS011;42018;48.588;10.836;2023-06-22T01:31:11;6.32;;;4.72;;
56141;SDS011;42018;48.588;10.836;2023-06-22T01:34:00;5.90;;;3.70;;
56141;SDS011;42018;48.588;10.836;2023-06-22T01:36:48;6.00;;;4.60;;
56141;SDS011;42018;48.588;10.836;2023-06-22T01:39:35;5.68;;;3.92;;
56141;SDS011;42018;48.588;10.836;2023-06-22T01:42:22;6.75;;;4.65;;
56141;SDS011;42018;48.588;10.836;2023-06-22T01:45:10;6.00;;;4.80;;
56141;SDS011;42018;48.588;10.836;2023-06-22T01:47:57;6.53;;;4.30;;
56141;SDS011;42018;48.588;10.836;2023-06-22T01:50:42;7.50;;;4.82;;
56141;SDS011;42018;48.588;10.836;2023-06-22T01:53:28;5.65;;;3.63;;
56141;SDS011;42018;48.588;10.836;2023-06-22T01:56:15;6.50;;;4.40;;
56141;SDS011;42018;48.588;10.836;2023-06-22T02:02:07;13.57;;;4.85;;
56141;SDS011;42018;48.588;10.836;2023-06-22T02:04:59;6.35;;;4.13;;
56141;SDS011;42018;48.588;10.836;2023-06-22T02:07:56;6.53;;;4.30;;
56141;SDS011;42018;48.588;10.836;2023-06-22T02:10:43;5.63;;;4.10;;
56141;SDS011;42018;48.588;10.836;2023-06-22T02:13:30;5.50;;;3.95;;
56141;SDS011;42018;48.588;10.836;2023-06-22T02:16:17;6.10;;;3.80;;
56141;SDS011;42018;48.588;10.836;2023-06-22T02:19:03;5.65;;;4.07;;
56141;SDS011;42018;48.588;10.836;2023-06-22T02:21:48;6.28;;;4.25;;
56141;SDS011;42018;48.588;10.836;2023-06-22T02:24:34;6.70;;;4.05;;
56141;SDS011;42018;48.588;10.836;2023-06-22T02:27:19;5.55;;;4.10;;
56141;SDS011;42018;48.588;10.836;2023-06-22T02:30:05;5.25;;;3.47;;
56141;SDS011;42018;48.588;10.836;2023-06-22T02:32:51;7.68;;;4.28;;
56141;SDS011;42018;48.588;10.836;2023-06-22T02:35:43;6.55;;;4.28;;
56141;SDS011;42018;48.588;10.836;2023-06-22T02:38:32;7.40;;;4.80;;
56141;SDS011;42018;48.588;10.836;2023-06-22T02:41:19;6.97;;;4.43;;
56141;SDS011;42018;48.588;10.836;2023-06-22T02:44:04;5.93;;;4.50;;
56141;SDS011;42018;48.588;10.836;2023-06-22T02:46:50;7.82;;;4.40;;
56141;SDS011;42018;48.588;10.836;2023-06-22T02:49:35;4.60;;;3.67;;
56141;SDS011;42018;48.588;10.836;2023-06-22T02:52:21;5.80;;;4.00;;
56141;SDS011;42018;48.588;10.836;2023-06-22T02:55:06;5.15;;;3.83;;
56141;SDS011;42018;48.588;10.836;2023-06-22T02:57:55;5.47;;;4.20;;
56141;SDS011;42018;48.588;10.836;2023-06-22T03:00:42;5.22;;;3.92;;
56141;SDS011;42018;48.588;10.836;2023-06-22T03:03:27;6.70;;;4.47;;
56141;SDS011;42018;48.588;10.836;2023-06-22T03:06:12;6.78;;;4.43;;
56141;SDS011;42018;48.588;10.836;2023-06-22T03:09:00;5.63;;;4.03;;
56141;SDS011;42018;48.588;10.836;2023-06-22T03:11:46;5.45;;;3.78;;
56141;SDS011;42018;48.588;10.836;2023-06-22T03:14:31;5.82;;;3.90;;
56141;SDS011;42018;48.588;10.836;2023-06-22T03:17:17;6.20;;;3.75;;
56141;SDS011;42018;48.588;10.836;2023-06-22T03:20:03;6.07;;;3.67;;
56141;SDS011;42018;48.588;10.836;2023-06-22T03:22:57;5.68;;;3.83;;
56141;SDS011;42018;48.588;10.836;2023-06-22T03:25:43;5.45;;;3.83;;
56141;SDS011;42018;48.588;10.836;2023-06-22T03:28:31;5.45;;;3.95;;
56141;SDS011;42018;48.588;10.836;2023-06-22T03:31:17;4.53;;;3.13;;
56141;SDS011;42018;48.588;10.836;2023-06-22T03:34:06;5.47;;;3.60;;
56141;SDS011;42018;48.588;10.836;2023-06-22T03:36:51;6.40;;;4.13;;
56141;SDS011;42018;48.588;10.836;2023-06-22T03:39:37;6.53;;;4.22;;
56141;SDS011;42018;48.588;10.836;2023-06-22T03:42:22;5.63;;;4.15;;
56141;SDS011;42018;48.588;10.836;2023-06-22T03:45:08;6.68;;;4.40;;
56141;SDS011;42018;48.588;10.836;2023-06-22T03:47:53;6.72;;;4.63;;
56141;SDS011;42018;48.588;10.836;2023-06-22T03:50:39;7.03;;;4.22;;
56141;SDS011;42018;48.588;10.836;2023-06-22T03:53:24;9.75;;;4.57;;
56141;SDS011;42018;48.588;10.836;2023-06-22T03:56:09;5.35;;;4.00;;
56141;SDS011;42018;48.588;10.836;2023-06-22T03:58:55;7.45;;;4.20;;
56141;SDS011;42018;48.588;10.836;2023-06-22T04:01:40;6.68;;;4.68;;
56141;SDS011;42018;48.588;10.836;2023-06-22T04:04:25;7.28;;;4.38;;
56141;SDS011;42018;48.588;10.836;2023-06-22T04:07:11;6.07;;;4.10;;
56141;SDS011;42018;48.588;10.836;2023-06-22T04:09:56;6.78;;;4.25;;
56141;SDS011;42018;48.588;10.836;2023-06-22T04:12:41;6.60;;;4.10;;
56141;SDS011;42018;48.588;10.836;2023-06-22T04:15:27;5.68;;;4.30;;
56141;SDS011;42018;48.588;10.836;2023-06-22T04:18:12;5.57;;;4.20;;
56141;SDS011;42018;48.588;10.836;2023-06-22T04:20:58;9.48;;;4.60;;
56141;SDS011;42018;48.588;10.836;2023-06-22T04:23:43;5.63;;;4.15;;
56141;SDS011;42018;48.588;10.836;2023-06-22T04:26:30;6.53;;;3.92;;
56141;SDS011;42018;48.588;10.836;2023-06-22T04:29:21;6.53;;;4.40;;
56141;SDS011;42018;48.588;10.836;2023-06-22T04:32:13;6.28;;;4.10;;
56141;SDS011;42018;48.588;10.836;2023-06-22T04:35:00;5.75;;;4.20;;
56141;SDS011;42018;48.588;10.836;2023-06-22T04:37:45;7.10;;;5.00;;
56141;SDS011;42018;48.588;10.836;2023-06-22T04:40:33;6.70;;;4.18;;
56141;SDS011;42018;48.588;10.836;2023-06-22T04:43:19;6.72;;;4.18;;
56141;SDS011;42018;48.588;10.836;2023-06-22T04:46:04;6.28;;;4.30;;
56141;SDS011;42018;48.588;10.836;2023-06-22T04:48:50;7.00;;;4.68;;
56141;SDS011;42018;48.588;10.836;2023-06-22T04:51:45;6.25;;;3.75;;
56141;SDS011;42018;48.588;10.836;2023-06-22T04:54:30;6.38;;;4.40;;
56141;SDS011;42018;48.588;10.836;2023-06-22T04:57:18;6.18;;;4.40;;
56141;SDS011;42018;48.588;10.836;2023-06-22T05:00:04;8.85;;;4.35;;
56141;SDS011;42018;48.588;10.836;2023-06-22T05:03:02;5.95;;;3.63;;
56141;SDS011;42018;48.588;10.836;2023-06-22T05:05:48;6.95;;;4.10;;
56141;SDS011;42018;48.588;10.836;2023-06-22T05:08:33;6.05;;;4.28;;
56141;SDS011;42018;48.588;10.836;2023-06-22T05:11:19;7.55;;;4.18;;
56141;SDS011;42018;48.588;10.836;2023-06-22T05:14:05;5.45;;;3.97;;
56141;SDS011;42018;48.588;10.836;2023-06-22T05:16:50;6.80;;;4.70;;
56141;SDS011;42018;48.588;10.836;2023-06-22T05:19:37;6.82;;;4.65;;
56141;SDS011;42018;48.588;10.836;2023-06-22T05:22:22;8.18;;;4.80;;
56141;SDS011;42018;48.588;10.836;2023-06-22T05:25:08;6.53;;;4.60;;
56141;SDS011;42018;48.588;10.836;2023-06-22T05:27:54;7.78;;;4.32;;
56141;SDS011;42018;48.588;10.836;2023-06-22T05:30:40;6.60;;;4.85;;
56141;SDS011;42018;48.588;10.836;2023-06-22T05:33:26;5.82;;;4.43;;
56141;SDS011;42018;48.588;10.836;2023-06-22T05:36:12;6.05;;;4.80;;
56141;SDS011;42018;48.588;10.836;2023-06-22T05:38:57;7.18;;;4.88;;
56141;SDS011;42018;48.588;10.836;2023-06-22T05:41:44;6.40;;;4.80;;
56141;SDS011;42018;48.588;10.836;2023-06-22T05:44:30;7.97;;;5.07;;
56141;SDS011;42018;48.588;10.836;2023-06-22T05:47:16;6.93;;;4.72;;
56141;SDS011;42018;48.588;10.836;2023-06-22T05:50:01;6.35;;;4.50;;
56141;SDS011;42018;48.588;10.836;2023-06-22T05:52:51;7.30;;;5.07;;
56141;SDS011;42018;48.588;10.836;2023-06-22T05:55:36;6.13;;;4.30;;
56141;SDS011;42018;48.588;10.836;2023-06-22T05:58:22;6.22;;;4.47;;
56141;SDS011;42018;48.588;10.836;2023-06-22T06:01:07;6.30;;;4.47;;
56141;SDS011;42018;48.588;10.836;2023-06-22T06:03:52;7.13;;;4.72;;
56141;SDS011;42018;48.588;10.836;2023-06-22T06:06:38;6.88;;;4.45;;
56141;SDS011;42018;48.588;10.836;2023-06-22T06:09:23;6.18;;;4.40;;
56141;SDS011;42018;48.588;10.836;2023-06-22T06:12:08;6.65;;;4.55;;
56141;SDS011;42018;48.588;10.836;2023-06-22T06:14:54;7.60;;;4.38;;
56141;SDS011;42018;48.588;10.836;2023-06-22T06:17:48;6.47;;;4.47;;
56141;SDS011;42018;48.588;10.836;2023-06-22T06:20:34;6.78;;;4.50;;
56141;SDS011;42018;48.588;10.836;2023-06-22T06:23:20;7.63;;;4.38;;
56141;SDS011;42018;48.588;10.836;2023-06-22T06:26:05;6.10;;;4.00;;
56141;SDS011;42018;48.588;10.836;2023-06-22T06:28:52;7.07;;;3.80;;
56141;SDS011;42018;48.588;10.836;2023-06-22T06:31:37;6.20;;;4.05;;
56141;SDS011;42018;48.588;10.836;2023-06-22T06:34:23;6.32;;;4.00;;
56141;SDS011;42018;48.588;10.836;2023-06-22T06:37:08;5.45;;;3.53;;
56141;SDS011;42018;48.588;10.836;2023-06-22T06:39:53;6.55;;;3.70;;
56141;SDS011;42018;48.588;10.836;2023-06-22T06:42:39;8.77;;;4.20;;
56141;SDS011;42018;48.588;10.836;2023-06-22T06:45:26;6.55;;;3.65;;
56141;SDS011;42018;48.588;10.836;2023-06-22T06:48:13;6.75;;;4.30;;
56141;SDS011;42018;48.588;10.836;2023-06-22T06:50:58;7.03;;;4.00;;
56141;SDS011;42018;48.588;10.836;2023-06-22T06:53:44;5.68;;;3.50;;
56141;SDS011;42018;48.588;10.836;2023-06-22T06:56:29;9.45;;;4.15;;
56141;SDS011;42018;48.588;10.836;2023-06-22T06:59:15;7.07;;;3.97;;
56141;SDS011;42018;48.588;10.836;2023-06-22T07:02:00;6.43;;;3.67;;
56141;SDS011;42018;48.588;10.836;2023-06-22T07:04:45;10.45;;;3.97;;
56141;SDS011;42018;48.588;10.836;2023-06-22T07:07:32;5.47;;;3.03;;
56141;SDS011;42018;48.588;10.836;2023-06-22T07:10:17;7.45;;;3.63;;
56141;SDS011;42018;48.588;10.836;2023-06-22T07:13:03;8.88;;;3.78;;
56141;SDS011;42018;48.588;10.836;2023-06-22T07:15:48;7.60;;;3.70;;
56141;SDS011;42018;48.588;10.836;2023-06-22T07:18:34;7.72;;;3.65;;
56141;SDS011;42018;48.588;10.836;2023-06-22T07:21:19;6.20;;;3.33;;
56141;SDS011;42018;48.588;10.836;2023-06-22T07:24:05;5.68;;;3.35;;
56141;SDS011;42018;48.588;10.836;2023-06-22T07:26:51;6.95;;;3.45;;
56141;SDS011;42018;48.588;10.836;2023-06-22T07:29:36;6.18;;;3.30;;
56141;SDS011;42018;48.588;10.836;2023-06-22T07:32:22;7.35;;;3.63;;
56141;SDS011;42018;48.588;10.836;2023-06-22T07:35:08;5.82;;;3.35;;
56141;SDS011;42018;48.588;10.836;2023-06-22T07:37:53;8.98;;;3.33;;
56141;SDS011;42018;48.588;10.836;2023-06-22T07:40:39;5.78;;;3.35;;
56141;SDS011;42018;48.588;10.836;2023-06-22T07:43:24;4.90;;;3.00;;
56141;SDS011;42018;48.588;10.836;2023-06-22T07:46:09;6.78;;;3.40;;
56141;SDS011;42018;48.588;10.836;2023-06-22T07:48:55;8.15;;;3.40;;
56141;SDS011;42018;48.588;10.836;2023-06-22T07:51:40;5.28;;;2.95;;
56141;SDS011;42018;48.588;10.836;2023-06-22T07:54:25;6.68;;;3.30;;
56141;SDS011;42018;48.588;10.836;2023-06-22T07:57:11;7.70;;;3.40;;
56141;SDS011;42018;48.588;10.836;2023-06-22T07:59:56;6.78;;;3.22;;
56141;SDS011;42018;48.588;10.836;2023-06-22T08:02:42;8.18;;;3.45;;
56141;SDS011;42018;48.588;10.836;2023-06-22T08:05:29;7.10;;;3.45;;
56141;SDS011;42018;48.588;10.836;2023-06-22T08:08:15;6.05;;;3.10;;
56141;SDS011;42018;48.588;10.836;2023-06-22T08:11:01;5.95;;;3.05;;
56141;SDS011;42018;48.588;10.836;2023-06-22T08:13:46;9.13;;;3.60;;
56141;SDS011;42018;48.588;10.836;2023-06-22T08:16:32;7.88;;;3.30;;
56141;SDS011;42018;48.588;10.836;2023-06-22T08:19:17;6.50;;;3.40;;
56141;SDS011;42018;48.588;10.836;2023-06-22T08:22:03;8.70;;;2.97;;
56141;SDS011;42018;48.588;10.836;2023-06-22T08:24:48;6.10;;;3.30;;
56141;SDS011;42018;48.588;10.836;2023-06-22T08:27:33;6.22;;;2.97;;
56141;SDS011;42018;48.588;10.836;2023-06-22T08:30:19;6.78;;;3.15;;
56141;SDS011;42018;48.588;10.836;2023-06-22T08:33:04;6.82;;;3.25;;
56141;SDS011;42018;48.588;10.836;2023-06-22T08:35:49;6.43;;;3.00;;
56141;SDS011;42018;48.588;10.836;2023-06-22T08:38:35;7.82;;;3.30;;
56141;SDS011;42018;48.588;10.836;2023-06-22T08:41:20;7.57;;;3.40;;
56141;SDS011;42018;48.588;10.836;2023-06-22T08:44:05;8.80;;;3.67;;
56141;SDS011;42018;48.588;10.836;2023-06-22T08:46:51;5.78;;;3.60;;
56141;SDS011;42018;48.588;10.836;2023-06-22T08:49:36;8.43;;;3.50;;
56141;SDS011;42018;48.588;10.836;2023-06-22T08:52:22;6.45;;;3.08;;
56141;SDS011;42018;48.588;10.836;2023-06-22T08:55:09;5.40;;;3.13;;
56141;SDS011;42018;48.588;10.836;2023-06-22T08:57:55;6.65;;;3.08;;
56141;SDS011;42018;48.588;10.836;2023-06-22T09:00:40;6.60;;;3.40;;
56141;SDS011;42018;48.588;10.836;2023-06-22T09:03:25;6.40;;;3.33;;
56141;SDS011;42018;48.588;10.836;2023-06-22T09:06:11;6.18;;;2.90;;
56141;SDS011;42018;48.588;10.836;2023-06-22T09:08:58;7.00;;;3.03;;
56141;SDS011;42018;48.588;10.836;2023-06-22T09:11:44;7.53;;;3.00;;
56141;SDS011;42018;48.588;10.836;2023-06-22T09:14:30;10.32;;;3.40;;
56141;SDS011;42018;48.588;10.836;2023-06-22T09:17:15;9.18;;;2.95;;
56141;SDS011;42018;48.588;10.836;2023-06-22T09:20:00;9.52;;;2.80;;
56141;SDS011;42018;48.588;10.836;2023-06-22T09:22:46;7.13;;;3.20;;
56141;SDS011;42018;48.588;10.836;2023-06-22T09:25:31;6.05;;;2.85;;
56141;SDS011;42018;48.588;10.836;2023-06-22T09:28:17;6.82;;;3.15;;
56141;SDS011;42018;48.588;10.836;2023-06-22T09:31:02;7.88;;;3.17;;
56141;SDS011;42018;48.588;10.836;2023-06-22T09:33:47;6.57;;;3.00;;
56141;SDS011;42018;48.588;10.836;2023-06-22T09:36:33;6.15;;;2.80;;
56141;SDS011;42018;48.588;10.836;2023-06-22T09:39:18;8.15;;;3.15;;
56141;SDS011;42018;48.588;10.836;2023-06-22T09:42:04;7.25;;;2.83;;
56141;SDS011;42018;48.588;10.836;2023-06-22T09:44:51;8.43;;;2.75;;
56141;SDS011;42018;48.588;10.836;2023-06-22T09:47:36;8.30;;;3.05;;
56141;SDS011;42018;48.588;10.836;2023-06-22T09:50:22;9.50;;;2.92;;
56141;SDS011;42018;48.588;10.836;2023-06-22T09:53:07;8.55;;;2.90;;
56141;SDS011;42018;48.588;10.836;2023-06-22T09:55:54;6.15;;;2.80;;
56141;SDS011;42018;48.588;10.836;2023-06-22T09:58:39;7.22;;;3.00;;
56141;SDS011;42018;48.588;10.836;2023-06-22T10:01:24;6.72;;;3.30;;
56141;SDS011;42018;48.588;10.836;2023-06-22T10:04:10;7.07;;;2.95;;
56141;SDS011;42018;48.588;10.836;2023-06-22T10:06:55;8.48;;;3.00;;
56141;SDS011;42018;48.588;10.836;2023-06-22T10:09:40;8.68;;;3.15;;
56141;SDS011;42018;48.588;10.836;2023-06-22T10:12:27;8.65;;;3.22;;
56141;SDS011;42018;48.588;10.836;2023-06-22T10:15:12;7.40;;;2.80;;
56141;SDS011;42018;48.588;10.836;2023-06-22T10:17:58;7.88;;;3.15;;
56141;SDS011;42018;48.588;10.836;2023-06-22T10:20:43;9.35;;;3.13;;
56141;SDS011;42018;48.588;10.836;2023-06-22T10:23:32;7.77;;;3.03;;
56141;SDS011;42018;48.588;10.836;2023-06-22T10:26:17;8.57;;;2.90;;
56141;SDS011;42018;48.588;10.836;2023-06-22T10:29:02;5.38;;;2.80;;
56141;SDS011;42018;48.588;10.836;2023-06-22T10:31:48;7.07;;;2.60;;
56141;SDS011;42018;48.588;10.836;2023-06-22T10:34:33;7.38;;;2.80;;
56141;SDS011;42018;48.588;10.836;2023-06-22T10:37:19;6.00;;;2.33;;
56141;SDS011;42018;48.588;10.836;2023-06-22T10:40:05;9.40;;;3.10;;
56141;SDS011;42018;48.588;10.836;2023-06-22T10:42:50;6.47;;;2.65;;
56141;SDS011;42018;48.588;10.836;2023-06-22T10:45:36;6.47;;;3.20;;
56141;SDS011;42018;48.588;10.836;2023-06-22T10:48:21;9.45;;;2.88;;
56141;SDS011;42018;48.588;10.836;2023-06-22T10:51:06;9.27;;;3.10;;
56141;SDS011;42018;48.588;10.836;2023-06-22T10:53:52;8.23;;;3.15;;
56141;SDS011;42018;48.588;10.836;2023-06-22T10:56:37;7.70;;;2.90;;
56141;SDS011;42018;48.588;10.836;2023-06-22T10:59:22;7.90;;;3.20;;
56141;SDS011;42018;48.588;10.836;2023-06-22T11:02:08;6.07;;;2.95;;
56141;SDS011;42018;48.588;10.836;2023-06-22T11:04:54;7.30;;;3.10;;
56141;SDS011;42018;48.588;10.836;2023-06-22T11:07:43;8.07;;;3.15;;
56141;SDS011;42018;48.588;10.836;2023-06-22T11:10:29;5.53;;;2.63;;
56141;SDS011;42018;48.588;10.836;2023-06-22T11:13:14;6.70;;;3.00;;
56141;SDS011;42018;48.588;10.836;2023-06-22T11:16:00;7.60;;;3.05;;
56141;SDS011;42018;48.588;10.836;2023-06-22T11:18:45;7.63;;;3.35;;
56141;SDS011;42018;48.588;10.836;2023-06-22T11:21:31;6.32;;;2.85;;
56141;SDS011;42018;48.588;10.836;2023-06-22T11:24:17;6.10;;;2.97;;
56141;SDS011;42018;48.588;10.836;2023-06-22T11:27:02;7.97;;;2.97;;
56141;SDS011;42018;48.588;10.836;2023-06-22T11:29:48;6.47;;;2.88;;
56141;SDS011;42018;48.588;10.836;2023-06-22T11:32:34;7.57;;;3.05;;
56141;SDS011;42018;48.588;10.836;2023-06-22T11:35:20;5.80;;;2.70;;
56141;SDS011;42018;48.588;10.836;2023-06-22T11:38:05;8.60;;;2.97;;
56141;SDS011;42018;48.588;10.836;2023-06-22T11:40:51;7.30;;;3.05;;
56141;SDS011;42018;48.588;10.836;2023-06-22T11:43:36;8.82;;;3.20;;
56141;SDS011;42018;48.588;10.836;2023-06-22T11:46:22;7.57;;;3.25;;
56141;SDS011;42018;48.588;10.836;2023-06-22T11:49:07;9.52;;;3.50;;
56141;SDS011;42018;48.588;10.836;2023-06-22T11:51:53;9.45;;;3.67;;
56141;SDS011;42018;48.588;10.836;2023-06-22T11:54:38;8.02;;;3.40;;
56141;SDS011;42018;48.588;10.836;2023-06-22T11:57:24;8.02;;;2.78;;
56141;SDS011;42018;48.588;10.836;2023-06-22T12:00:09;7.35;;;2.78;;
56141;SDS011;42018;48.588;10.836;2023-06-22T12:03:01;8.25;;;3.25;;
56141;SDS011;42018;48.588;10.836;2023-06-22T12:05:46;8.27;;;3.58;;
56141;SDS011;42018;48.588;10.836;2023-06-22T12:08:32;8.38;;;3.10;;
56141;SDS011;42018;48.588;10.836;2023-06-22T12:11:17;7.10;;;3.17;;
56141;SDS011;42018;48.588;10.836;2023-06-22T12:14:03;11.57;;;3.30;;
56141;SDS011;42018;48.588;10.836;2023-06-22T12:16:49;7.47;;;2.90;;
56141;SDS011;42018;48.588;10.836;2023-06-22T12:19:34;9.30;;;2.90;;
56141;SDS011;42018;48.588;10.836;2023-06-22T12:22:20;5.93;;;2.70;;
56141;SDS011;42018;48.588;10.836;2023-06-22T12:25:05;9.32;;;3.25;;
56141;SDS011;42018;48.588;10.836;2023-06-22T12:27:51;6.72;;;2.88;;
56141;SDS011;42018;48.588;10.836;2023-06-22T12:30:36;7.97;;;3.00;;
56141;SDS011;42018;48.588;10.836;2023-06-22T12:33:21;5.85;;;2.95;;
56141;SDS011;42018;48.588;10.836;2023-06-22T12:36:07;6.00;;;2.80;;
56141;SDS011;42018;48.588;10.836;2023-06-22T12:38:52;6.30;;;3.05;;
56141;SDS011;42018;48.588;10.836;2023-06-22T12:41:37;5.75;;;2.50;;
56141;SDS011;42018;48.588;10.836;2023-06-22T12:44:23;8.07;;;3.30;;
56141;SDS011;42018;48.588;10.836;2023-06-22T12:47:08;7.38;;;3.30;;
56141;SDS011;42018;48.588;10.836;2023-06-22T12:49:54;8.77;;;3.10;;
56141;SDS011;42018;48.588;10.836;2023-06-22T12:52:40;7.63;;;2.60;;
56141;SDS011;42018;48.588;10.836;2023-06-22T12:55:25;6.50;;;2.55;;
56141;SDS011;42018;48.588;10.836;2023-06-22T12:58:11;5.32;;;2.42;;
56141;SDS011;42018;48.588;10.836;2023-06-22T13:00:56;6.40;;;2.65;;
56141;SDS011;42018;48.588;10.836;2023-06-22T13:03:41;6.85;;;3.10;;
56141;SDS011;42018;48.588;10.836;2023-06-22T13:06:27;5.93;;;2.80;;
56141;SDS011;42018;48.588;10.836;2023-06-22T13:09:13;6.30;;;2.70;;
56141;SDS011;42018;48.588;10.836;2023-06-22T13:11:59;5.95;;;2.75;;
56141;SDS011;42018;48.588;10.836;2023-06-22T13:14:45;6.93;;;2.97;;
56141;SDS011;42018;48.588;10.836;2023-06-22T13:17:31;7.03;;;2.72;;
56141;SDS011;42018;48.588;10.836;2023-06-22T13:20:17;7.90;;;2.90;;
56141;SDS011;42018;48.588;10.836;2023-06-22T13:23:02;7.03;;;2.60;;
56141;SDS011;42018;48.588;10.836;2023-06-22T13:25:47;8.57;;;2.78;;
56141;SDS011;42018;48.588;10.836;2023-06-22T13:28:33;6.55;;;2.50;;
56141;SDS011;42018;48.588;10.836;2023-06-22T13:31:18;5.50;;;2.88;;
56141;SDS011;42018;48.588;10.836;2023-06-22T13:34:04;7.07;;;2.72;;
56141;SDS011;42018;48.588;10.836;2023-06-22T13:36:49;5.45;;;2.60;;
56141;SDS011;42018;48.588;10.836;2023-06-22T13:39:34;5.72;;;2.40;;
56141;SDS011;42018;48.588;10.836;2023-06-22T13:42:19;7.35;;;3.13;;
56141;SDS011;42018;48.588;10.836;2023-06-22T13:45:05;6.40;;;3.03;;
56141;SDS011;42018;48.588;10.836;2023-06-22T13:47:51;8.10;;;2.95;;
56141;SDS011;42018;48.588;10.836;2023-06-22T13:50:36;5.95;;;2.83;;
56141;SDS011;42018;48.588;10.836;2023-06-22T13:53:24;6.97;;;2.72;;
56141;SDS011;42018;48.588;10.836;2023-06-22T13:56:09;6.72;;;2.67;;
56141;SDS011;42018;48.588;10.836;2023-06-22T13:58:55;7.95;;;2.85;;
56141;SDS011;42018;48.588;10.836;2023-06-22T14:01:40;6.43;;;2.67;;
56141;SDS011;42018;48.588;10.836;2023-06-22T14:04:26;8.57;;;2.72;;
56141;SDS011;42018;48.588;10.836;2023-06-22T14:07:13;8.50;;;3.00;;
56141;SDS011;42018;48.588;10.836;2023-06-22T14:09:59;8.82;;;2.88;;
56141;SDS011;42018;48.588;10.836;2023-06-22T14:12:45;6.00;;;2.60;;
56141;SDS011;42018;48.588;10.836;2023-06-22T14:15:31;6.75;;;2.80;;
56141;SDS011;42018;48.588;10.836;2023-06-22T14:18:17;6.40;;;2.75;;
56141;SDS011;42018;48.588;10.836;2023-06-22T14:21:02;7.25;;;3.00;;
56141;SDS011;42018;48.588;10.836;2023-06-22T14:23:48;6.18;;;2.60;;
56141;SDS011;42018;48.588;10.836;2023-06-22T14:26:34;8.13;;;3.10;;
56141;SDS011;42018;48.588;10.836;2023-06-22T14:29:20;6.15;;;2.42;;
56141;SDS011;42018;48.588;10.836;2023-06-22T14:32:05;7.78;;;2.72;;
56141;SDS011;42018;48.588;10.836;2023-06-22T14:34:51;9.40;;;3.30;;
56141;SDS011;42018;48.588;10.836;2023-06-22T14:37:37;6.85;;;2.80;;
56141;SDS011;42018;48.588;10.836;2023-06-22T14:40:22;5.57;;;2.53;;
56141;SDS011;42018;48.588;10.836;2023-06-22T14:43:08;5.05;;;2.50;;
56141;SDS011;42018;48.588;10.836;2023-06-22T14:45:53;6.38;;;2.45;;
56141;SDS011;42018;48.588;10.836;2023-06-22T14:48:38;6.30;;;3.00;;
56141;SDS011;42018;48.588;10.836;2023-06-22T14:51:24;7.45;;;2.88;;
56141;SDS011;42018;48.588;10.836;2023-06-22T14:54:09;6.32;;;3.00;;
56141;SDS011;42018;48.588;10.836;2023-06-22T14:56:54;6.38;;;2.90;;
56141;SDS011;42018;48.588;10.836;2023-06-22T14:59:40;6.72;;;2.90;;
56141;SDS011;42018;48.588;10.836;2023-06-22T15:02:25;6.05;;;2.95;;
56141;SDS011;42018;48.588;10.836;2023-06-22T15:05:11;5.65;;;2.60;;
56141;SDS011;42018;48.588;10.836;2023-06-22T15:07:59;6.15;;;2.92;;
56141;SDS011;42018;48.588;10.836;2023-06-22T15:10:45;6.50;;;2.75;;
56141;SDS011;42018;48.588;10.836;2023-06-22T15:13:31;7.38;;;3.10;;
56141;SDS011;42018;48.588;10.836;2023-06-22T15:16:19;7.30;;;2.88;;
56141;SDS011;42018;48.588;10.836;2023-06-22T15:19:05;6.43;;;2.83;;
56141;SDS011;42018;48.588;10.836;2023-06-22T15:21:52;6.72;;;3.03;;
56141;SDS011;42018;48.588;10.836;2023-06-22T15:24:38;7.35;;;3.42;;
56141;SDS011;42018;48.588;10.836;2023-06-22T15:27:23;8.70;;;4.30;;
56141;SDS011;42018;48.588;10.836;2023-06-22T15:30:09;6.72;;;2.92;;
56141;SDS011;42018;48.588;10.836;2023-06-22T15:32:55;8.43;;;3.17;;
56141;SDS011;42018;48.588;10.836;2023-06-22T15:35:41;6.10;;;2.60;;
56141;SDS011;42018;48.588;10.836;2023-06-22T15:38:27;6.80;;;2.83;;
56141;SDS011;42018;48.588;10.836;2023-06-22T15:41:12;8.80;;;3.22;;
56141;SDS011;42018;48.588;10.836;2023-06-22T15:43:58;6.95;;;2.97;;
56141;SDS011;42018;48.588;10.836;2023-06-22T15:46:43;7.47;;;3.00;;
56141;SDS011;42018;48.588;10.836;2023-06-22T15:49:29;5.28;;;2.67;;
56141;SDS011;42018;48.588;10.836;2023-06-22T15:52:14;9.38;;;2.97;;
56141;SDS011;42018;48.588;10.836;2023-06-22T15:57:49;6.72;;;2.70;;
56141;SDS011;42018;48.588;10.836;2023-06-22T16:00:34;7.57;;;3.00;;
56141;SDS011;42018;48.588;10.836;2023-06-22T16:03:20;9.75;;;2.95;;
56141;SDS011;42018;48.588;10.836;2023-06-22T16:06:05;6.22;;;2.65;;
56141;SDS011;42018;48.588;10.836;2023-06-22T16:08:50;8.05;;;3.03;;
56141;SDS011;42018;48.588;10.836;2023-06-22T16:11:36;5.65;;;2.90;;
56141;SDS011;42018;48.588;10.836;2023-06-22T16:14:21;8.13;;;3.20;;
56141;SDS011;42018;48.588;10.836;2023-06-22T16:17:07;6.20;;;2.70;;
56141;SDS011;42018;48.588;10.836;2023-06-22T16:19:53;6.53;;;2.95;;
56141;SDS011;42018;48.588;10.836;2023-06-22T16:22:39;7.38;;;3.13;;
56141;SDS011;42018;48.588;10.836;2023-06-22T16:25:25;7.47;;;2.95;;
56141;SDS011;42018;48.588;10.836;2023-06-22T16:28:11;5.72;;;2.85;;
56141;SDS011;42018;48.588;10.836;2023-06-22T16:30:56;8.40;;;3.03;;
56141;SDS011;42018;48.588;10.836;2023-06-22T16:33:41;7.55;;;3.08;;
56141;SDS011;42018;48.588;10.836;2023-06-22T16:36:32;7.05;;;3.00;;